ENAL

Alesund/Vigra

Airport
ICAO code
ENAL
Summary
ICAO Region
EUR
ICAO Territory
Location

Alesund/Vigra,

Elevation
69 ft
Coordinates
62° 33' 45" N , 6° 7' 11" E
KCC
Cfb
Metar
Observation
ENAL 112220Z AUTO VRB02KT 2800 DZ VV002 12/12 Q1021
Station
Alesund / Vigra
Date/Time
2022-08-11 22:20:00
Wind speed
02 kts
Lowest cloud amount
n/a
Temperature
12°C
Dew point
12°C
Humidity
100%
QNH
1021 hPa
Weather condition
n/a

Description

Airport serving Alesund, Norway.

Climatology

Temperate Marine climate/Oceanic climate (Köppen climate classification Cfb). Moderately cool summer and comparatively warm winter with a temperature range of only 14°C. Prevailing south-westerly winds from the Atlantic Ocean.

Runways

Designator Length Width Surface Rops
7/25 2314 45 ASP Yes/Yes

Airport map

Aerial View

SKYbrary Partners:

Safety knowledge contributed by: